Main page
METAR-TAF:

METAR-TAF

Airports :

Rabat–Salé Airport

Rabat, Morocco

latitude: 34-03N, longitude: 006-46W, elevation: 84 m

Current weather observation

The report was made 44 minutes ago, at 13:00 UTC
Wind 8 kt from the West, varying between Southwest and West/Northwest
Temperature 20°C
Humidity 64%
Pressure 1006 hPa
Visibility: 5000 m
Scattered clouds at a height of 2000 ft

METAR: GMME 031300Z 26008KT 230V300 5000 SCT020 20/13 Q1006 NOSIG

Time: 14:44 (13:44 UTC)

Forecast

The report was made 2 hours and 44 minutes ago, at 11:00 UTC
Forecast valid from 03 at 12 UTC to 04 at 18 UTC
Wind 9 kt from the Southwest
Visibility: 5000 m
Scattered clouds at a height of 1500 ft
Temporary
from 03 at 14 UTC to 03 at 20 UTC
Wind 12 kt from the South
Visibility: 3000 m
Broken clouds at a height of 800 ft
Broken clouds at a height of 2200 ft, Towering cumulus.
Overcast at a height of 3300 ft
rain

TAF: GMME 031100Z 0312/0418 22009KT 5000 SCT015 TEMPO 0314/0320 18012KT 3000 RA BKN008 BKN022TCU OVC033

Weather observations and forecasts of more than 4000 airports (METAR and TAF reports).

The available stations are represented by yellow and red dots on the map.

Hover mouse over dot to see the name of the station.

Then click to see weather observations and forecasts.

To change the map : click on the green buttons with a black cross to zoom in, on the green button with a dash to zoom out, or on the green arrows for adjacent maps.


METAR-TAF: